Arvidsjaur Airport


Codes: ESNX/AJR
Name: Arvidsjaur Airport
City: Arvidsjaur
Country: Sweden
Elevation: 1245 ft.
Wikipedia:

Photos at Arvidsjaur Airport


   Photos courtesy of SpottingLog. You can add your own sightings and photos by signing up for a free trial today.



No photos found.

Weather at Arvidsjaur Airport


Time (UTC)DescriptionTempratureWindCloud coverageVisibilityPressureHumidity
25-Jun-2024 15:00Scattered Clouds24°C9 mph, W45%10000m1013hPa39%
25-Jun-2024 18:00Broken Clouds22°C4 mph, W56%10000m1012hPa52%
25-Jun-2024 21:00Clear Sky15°C2 mph, W0%10000m1013hPa75%
26-Jun-2024 00:00Clear Sky14°C4 mph, W4%10000m1014hPa74%
26-Jun-2024 03:00Light Rain14°C2 mph, W82%10000m1014hPa80%
26-Jun-2024 06:00Moderate Rain12°C2 mph, W90%5285m1015hPa98%
26-Jun-2024 09:00Moderate Rain12°C2 mph, NW100%10000m1016hPa95%
26-Jun-2024 12:00Light Rain14°C4 mph, NW100%10000m1016hPa79%
26-Jun-2024 15:00Scattered Clouds19°C7 mph, W45%10000m1014hPa43%
26-Jun-2024 18:00Scattered Clouds18°C4 mph, W34%10000m1015hPa52%
26-Jun-2024 21:00Scattered Clouds12°C2 mph, NW31%10000m1016hPa65%
27-Jun-2024 00:00Broken Clouds10°C2 mph, N63%10000m1016hPa65%
27-Jun-2024 03:00Broken Clouds12°C0 mph, NW62%10000m1016hPa65%
27-Jun-2024 06:00Broken Clouds17°C2 mph, SW55%10000m1015hPa48%
27-Jun-2024 09:00Broken Clouds21°C7 mph, SW65%10000m1014hPa37%
27-Jun-2024 12:00Broken Clouds17°C4 mph, S58%10000m1014hPa67%
27-Jun-2024 15:00Overcast Clouds22°C4 mph, S86%10000m1012hPa53%
27-Jun-2024 18:00Light Rain20°C4 mph, S83%10000m1012hPa71%
27-Jun-2024 21:00Scattered Clouds17°C7 mph, S41%10000m1012hPa82%
28-Jun-2024 00:00Broken Clouds14°C7 mph, S66%10000m1012hPa87%
28-Jun-2024 03:00Clear Sky15°C7 mph, S9%10000m1011hPa79%
28-Jun-2024 06:00Clear Sky20°C9 mph, S5%10000m1010hPa55%
28-Jun-2024 09:00Clear Sky24°C11 mph, S0%10000m1008hPa48%
28-Jun-2024 12:00Few Clouds26°C13 mph, S11%10000m1006hPa40%
28-Jun-2024 15:00Clear Sky25°C13 mph, S2%10000m1005hPa44%
28-Jun-2024 18:00Clear Sky22°C11 mph, S3%10000m1003hPa59%
28-Jun-2024 21:00Clear Sky18°C11 mph, SE0%10000m1002hPa73%
29-Jun-2024 00:00Light Rain15°C9 mph, SE31%10000m999hPa94%
29-Jun-2024 03:00Light Rain15°C9 mph, S100%992m997hPa98%
29-Jun-2024 06:00Light Rain15°C13 mph, SW100%10000m997hPa88%
29-Jun-2024 09:00Broken Clouds18°C16 mph, SW52%10000m999hPa57%
29-Jun-2024 12:00Broken Clouds17°C13 mph, W55%10000m1001hPa52%
29-Jun-2024 15:00Broken Clouds15°C13 mph, W66%10000m1004hPa54%
29-Jun-2024 18:00Scattered Clouds14°C13 mph, W40%10000m1005hPa55%
29-Jun-2024 21:00Clear Sky11°C11 mph, W1%10000m1007hPa62%
30-Jun-2024 00:00Clear Sky9°C11 mph, W0%10000m1008hPa61%
30-Jun-2024 03:00Clear Sky10°C11 mph, W0%10000m1009hPa58%
30-Jun-2024 06:00Clear Sky15°C9 mph, NW0%10000m1010hPa40%
30-Jun-2024 09:00Clear Sky18°C7 mph, NW0%10000m1010hPa30%
30-Jun-2024 12:00Clear Sky21°C2 mph, W0%10000m1009hPa30%